createdAt,value
2022-09-25T00:03:11.088Z,99651.00
2022-09-25T00:08:13.011Z,99635.50
2022-09-25T00:13:15.824Z,99640.38
2022-09-25T00:18:17.185Z,99642.97
2022-09-25T00:23:18.542Z,99641.22
2022-09-25T00:28:19.917Z,99641.44
2022-09-25T00:33:21.281Z,99631.84
2022-09-25T00:38:22.646Z,99641.91
2022-09-25T00:43:50.959Z,99638.97
2022-09-25T00:49:05.069Z,99631.59
2022-09-25T00:54:07.706Z,99637.50
2022-09-25T00:59:11.384Z,99628.28
2022-09-25T01:04:12.917Z,99623.91
2022-09-25T01:09:14.317Z,99625.94
2022-09-25T01:14:17.085Z,99621.53
2022-09-25T01:19:45.314Z,99620.69
2022-09-25T01:25:12.879Z,99612.44
2022-09-25T01:30:18.610Z,99617.66
2022-09-25T01:35:37.557Z,99626.03
2022-09-25T01:40:52.456Z,99626.16
2022-09-25T01:45:59.607Z,99623.09
2022-09-25T01:51:31.385Z,99626.63
2022-09-25T01:56:41.277Z,99625.81
2022-09-25T02:01:42.796Z,99622.75
2022-09-25T02:06:45.750Z,99625.34
2022-09-25T02:11:48.709Z,99631.28
2022-09-25T02:16:54.635Z,99617.88
2022-09-25T02:21:55.816Z,99626.03
2022-09-25T02:26:57.181Z,99622.50
2022-09-25T02:32:00.235Z,99614.09
2022-09-25T02:37:01.821Z,99616.47
2022-09-25T02:42:23.323Z,99615.63
2022-09-25T02:47:51.534Z,99614.56
2022-09-25T02:53:15.073Z,99619.75
2022-09-25T02:58:24.599Z,99611.03
2022-09-25T03:03:25.957Z,99616.22
2022-09-25T03:08:39.293Z,99619.75
2022-09-25T03:13:41.135Z,99617.88
2022-09-25T03:18:42.495Z,99614.09
2022-09-25T03:23:43.917Z,99602.59
2022-09-25T03:28:47.378Z,99609.13
2022-09-25T03:33:48.849Z,99603.91
2022-09-25T03:38:51.545Z,99598.72
2022-09-25T03:43:53.750Z,99601.19
2022-09-25T03:48:55.297Z,99599.78
2022-09-25T03:53:56.733Z,99601.44
2022-09-25T03:58:58.185Z,99597.41
2022-09-25T04:04:00.981Z,99603.69
2022-09-25T04:09:02.338Z,99603.09
2022-09-25T04:14:04.477Z,99605.31
2022-09-25T04:19:06.775Z,99609.59
2022-09-25T04:24:27.041Z,99610.66
2022-09-25T04:29:28.945Z,99619.66
2022-09-25T04:34:30.797Z,99613.16
2022-09-25T04:39:32.165Z,99605.22
2022-09-25T04:44:33.519Z,99609.81
2022-09-25T04:49:35.029Z,99616.09
2022-09-25T04:54:36.390Z,99616.72
2022-09-25T04:59:37.881Z,99609.25
2022-09-25T05:04:39.334Z,99616.72
2022-09-25T05:09:40.689Z,99624.06
2022-09-25T05:14:42.515Z,99619.09
2022-09-25T05:19:43.872Z,99619.44
2022-09-25T05:24:45.226Z,99614.22
2022-09-25T05:29:46.584Z,99621.81
2022-09-25T05:34:47.997Z,99629.13
2022-09-25T05:39:49.354Z,99625.69
2022-09-25T05:44:50.717Z,99633.28
2022-09-25T05:49:52.120Z,99634.81
2022-09-25T05:54:54.534Z,99629.13
2022-09-25T05:59:55.947Z,99630.19
2022-09-25T06:04:57.314Z,99625.69
2022-09-25T06:09:58.685Z,99627.25
2022-09-25T06:15:00.596Z,99618.25
2022-09-25T06:20:01.957Z,99622.63
2022-09-25T06:25:04.413Z,99623.22
2022-09-25T06:30:06.205Z,99625.94
2022-09-25T06:35:07.817Z,99627.25
2022-09-25T06:40:09.521Z,99620.72
2022-09-25T06:45:11.493Z,99623.22
2022-09-25T06:50:14.962Z,99623.22
2022-09-25T06:55:16.317Z,99627.81
2022-09-25T07:00:17.681Z,99627.81
2022-09-25T07:05:19.080Z,99636.81
2022-09-25T07:10:20.441Z,99642.28
2022-09-25T07:15:22.829Z,99643.34
2022-09-25T07:20:24.443Z,99642.38
2022-09-25T07:25:25.879Z,99635.16
2022-09-25T07:30:28.474Z,99630.56
2022-09-25T07:35:29.928Z,99641.91
2022-09-25T07:40:31.838Z,99629.50
2022-09-25T07:45:33.232Z,99640.25
2022-09-25T07:50:34.600Z,99624.28
2022-09-25T07:55:35.959Z,99636.47
2022-09-25T08:00:37.351Z,99630.81
2022-09-25T08:05:38.720Z,99630.91
2022-09-25T08:10:40.075Z,99633.06
2022-09-25T08:15:41.463Z,99622.75
2022-09-25T08:20:42.890Z,99611.84
2022-09-25T08:25:48.461Z,99609.34
2022-09-25T08:30:50.091Z,99610.66
2022-09-25T08:35:59.060Z,99602.84
2022-09-25T08:41:14.585Z,99601.91
2022-09-25T08:46:41.212Z,99606.63
2022-09-25T08:51:49.296Z,99596.47
2022-09-25T08:56:53.228Z,99602.13
2022-09-25T09:01:59.942Z,99600.84
2022-09-25T09:07:25.959Z,99596.09
2022-09-25T09:12:35.929Z,99593.38
2022-09-25T09:17:41.319Z,99591.84
2022-09-25T09:22:47.018Z,99590.53
2022-09-25T09:28:10.169Z,99588.88
2022-09-25T09:33:20.560Z,99589.13
2022-09-25T09:38:28.279Z,99585.69
2022-09-25T09:44:07.603Z,99570.66
2022-09-25T09:49:18.161Z,99565.56
2022-09-25T09:54:21.824Z,99559.19
2022-09-25T09:59:26.734Z,99560.81
2022-09-25T10:04:31.629Z,99562.00
2022-09-25T10:09:33.040Z,99560.13
2022-09-25T10:14:38.270Z,99555.16
2022-09-25T10:19:46.018Z,99554.09
2022-09-25T10:24:51.752Z,99549.94
2022-09-25T10:30:21.599Z,99538.34
2022-09-25T10:35:40.014Z,99535.25
2022-09-25T10:40:41.959Z,99531.34
2022-09-25T10:45:43.474Z,99526.25
2022-09-25T10:50:44.889Z,99530.31
2022-09-25T10:55:51.082Z,99519.06
2022-09-25T11:00:53.017Z,99516.13
2022-09-25T11:05:59.203Z,99506.63
2022-09-25T11:11:01.329Z,99506.97
2022-09-25T11:16:04.553Z,99504.97
2022-09-25T11:21:06.749Z,99510.41
2022-09-25T11:26:16.025Z,99503.81
2022-09-25T11:31:37.662Z,99497.16
2022-09-25T11:36:48.061Z,99488.41
2022-09-25T11:41:51.549Z,99497.97
2022-09-25T11:47:04.771Z,99490.66
2022-09-25T11:52:28.258Z,99495.25
2022-09-25T11:57:34.981Z,99487.31
2022-09-25T12:02:48.379Z,99493.03
2022-09-25T12:08:24.260Z,99484.59
2022-09-25T12:13:45.438Z,99478.09
2022-09-25T12:19:01.245Z,99476.22
2022-09-25T12:24:08.985Z,99466.84
2022-09-25T12:29:51.693Z,99463.31
2022-09-25T12:35:10.922Z,99458.47
2022-09-25T12:40:23.092Z,99457.16
2022-09-25T12:45:33.081Z,99453.03
2022-09-25T12:50:39.732Z,99449.81
2022-09-25T12:55:44.018Z,99444.59
2022-09-25T13:00:46.432Z,99439.16
2022-09-25T13:05:52.045Z,99439.97
2022-09-25T13:10:54.107Z,99437.25
2022-09-25T13:15:57.120Z,99430.41
2022-09-25T13:21:19.141Z,99428.53
2022-09-25T13:26:24.982Z,99423.91
2022-09-25T13:31:27.720Z,99416.31
2022-09-25T13:36:46.288Z,99417.16
2022-09-25T13:41:55.266Z,99408.16
2022-09-25T13:47:25.171Z,99406.25
2022-09-25T13:52:30.064Z,99399.16
2022-09-25T13:57:57.187Z,99399.56
2022-09-25T14:03:02.857Z,99396.19
2022-09-25T14:08:08.153Z,99395.69
2022-09-25T14:13:12.921Z,99396.03
2022-09-25T14:18:26.158Z,99401.38
2022-09-25T14:23:30.130Z,99389.66
2022-09-25T14:28:35.431Z,99380.66
2022-09-25T14:33:50.546Z,99379.25
2022-09-25T14:38:59.510Z,99378.78
2022-09-25T14:44:32.633Z,99367.66
2022-09-25T14:49:40.323Z,99369.88
2022-09-25T14:54:44.885Z,99357.56
2022-09-25T14:59:49.536Z,99359.72
2022-09-25T15:04:50.985Z,99358.88
2022-09-25T15:09:55.083Z,99355.69
2022-09-25T15:15:16.326Z,99360.53
2022-09-25T15:20:22.047Z,99373.41
2022-09-25T15:25:26.601Z,99363.53
2022-09-25T15:30:27.957Z,99364.94
2022-09-25T15:35:30.211Z,99356.75
2022-09-25T15:40:32.052Z,99360.19
2022-09-25T15:45:39.142Z,99356.41
2022-09-25T15:50:43.146Z,99360.19
2022-09-25T15:55:45.454Z,99355.44
2022-09-25T16:01:17.675Z,99363.75
2022-09-25T16:06:19.164Z,99353.44
2022-09-25T16:11:24.571Z,99361.94
2022-09-25T16:16:30.358Z,99359.50
2022-09-25T16:21:33.565Z,99359.72
2022-09-25T16:26:37.304Z,99360.19
2022-09-25T16:31:43.244Z,99362.44
2022-09-25T16:36:44.642Z,99360.81
2022-09-25T16:41:48.397Z,99365.66
2022-09-25T16:46:52.768Z,99362.94
2022-09-25T16:51:54.453Z,99365.66
2022-09-25T16:56:57.457Z,99363.75
2022-09-25T17:02:01.238Z,99370.88
2022-09-25T17:07:02.729Z,99363.53
2022-09-25T17:12:10.313Z,99361.88
2022-09-25T17:17:11.670Z,99359.72
2022-09-25T17:22:13.040Z,99356.09
2022-09-25T17:27:15.289Z,99365.06
2022-09-25T17:32:17.278Z,99365.41
2022-09-25T17:37:18.665Z,99362.34
2022-09-25T17:42:20.040Z,99356.66
2022-09-25T17:47:21.588Z,99364.09
2022-09-25T17:52:22.958Z,99355.38
2022-09-25T17:57:26.706Z,99361.03
2022-09-25T18:02:29.500Z,99356.66
2022-09-25T18:07:33.670Z,99358.31
2022-09-25T18:12:35.332Z,99352.28
2022-09-25T18:17:36.729Z,99363.53
2022-09-25T18:22:38.334Z,99361.59
2022-09-25T18:27:41.518Z,99364.31
2022-09-25T18:32:44.084Z,99360.81
2022-09-25T18:37:45.535Z,99364.81
2022-09-25T18:42:48.182Z,99350.97
2022-09-25T18:47:49.569Z,99358.56
2022-09-25T18:52:51.104Z,99365.16
2022-09-25T18:57:52.594Z,99364.31
2022-09-25T19:02:54.135Z,99368.38
2022-09-25T19:07:55.610Z,99365.66
2022-09-25T19:12:57.046Z,99374.31
2022-09-25T19:17:59.029Z,99367.81
2022-09-25T19:23:02.405Z,99365.78
2022-09-25T19:28:03.762Z,99377.84
2022-09-25T19:33:05.182Z,99383.88
2022-09-25T19:38:11.817Z,99372.97
2022-09-25T19:43:14.030Z,99375.63
2022-09-25T19:48:15.398Z,99377.03
2022-09-25T19:53:18.650Z,99378.91
2022-09-25T19:58:23.602Z,99371.34
2022-09-25T20:03:25.238Z,99365.66
2022-09-25T20:08:26.600Z,99358.56
2022-09-25T20:13:27.976Z,99370.53
2022-09-25T20:18:29.330Z,99362.59
2022-09-25T20:23:30.721Z,99367.81
2022-09-25T20:28:32.136Z,99368.63
2022-09-25T20:33:35.424Z,99367.88
2022-09-25T20:38:36.831Z,99361.19
2022-09-25T20:43:38.452Z,99358.81
2022-09-25T20:48:45.374Z,99367.22
2022-09-25T20:53:50.793Z,99358.56
2022-09-25T20:58:53.672Z,99366.41
2022-09-25T21:03:55.210Z,99361.53
2022-09-25T21:09:00.562Z,99355.25
2022-09-25T21:14:02.494Z,99362.09
2022-09-25T21:19:04.534Z,99367.81
2022-09-25T21:24:06.187Z,99357.97
2022-09-25T21:29:08.400Z,99350.06
2022-09-25T21:34:11.141Z,99351.47
2022-09-25T21:39:13.173Z,99350.28
2022-09-25T21:44:15.355Z,99343.31
2022-09-25T21:49:18.980Z,99331.84
2022-09-25T21:54:20.678Z,99334.06
2022-09-25T21:59:22.052Z,99339.53
2022-09-25T22:04:23.407Z,99331.25
2022-09-25T22:09:24.842Z,99342.47
2022-09-25T22:14:26.196Z,99331.00
2022-09-25T22:19:28.653Z,99338.91
2022-09-25T22:24:30.022Z,99327.81
2022-09-25T22:29:31.698Z,99326.88
2022-09-25T22:34:33.061Z,99319.03
2022-09-25T22:39:34.479Z,99320.19
2022-09-25T22:44:35.834Z,99317.63
2022-09-25T22:49:37.189Z,99315.25
2022-09-25T22:54:38.548Z,99315.75
2022-09-25T22:59:39.908Z,99314.41
2022-09-25T23:04:41.277Z,99312.19
2022-09-25T23:09:43.037Z,99311.63
2022-09-25T23:14:44.428Z,99306.16
2022-09-25T23:19:45.800Z,99303.44
2022-09-25T23:24:47.157Z,99299.41
2022-09-25T23:29:48.517Z,99298.00
2022-09-25T23:34:49.876Z,99304.84
2022-09-25T23:39:51.317Z,99300.16
2022-09-25T23:44:52.673Z,99298.91
2022-09-25T23:49:54.065Z,99295.28
2022-09-25T23:54:57.681Z,99279.22
2022-09-25T23:59:59.045Z,99269.72
